sensor_id;sensor_type;location;lat;lon;timestamp;temperature;humidity
53282;DHT22;39167;52.794;6.892;2022-07-03T00:02:09;19.10;99.90
53282;DHT22;39167;52.794;6.892;2022-07-03T00:04:35;19.00;99.90
53282;DHT22;39167;52.794;6.892;2022-07-03T00:07:00;18.90;99.90
53282;DHT22;39167;52.794;6.892;2022-07-03T00:09:26;19.00;99.90
53282;DHT22;39167;52.794;6.892;2022-07-03T00:11:52;19.00;99.90
53282;DHT22;39167;52.794;6.892;2022-07-03T00:14:18;18.90;99.90
53282;DHT22;39167;52.794;6.892;2022-07-03T00:16:44;18.90;99.90
53282;DHT22;39167;52.794;6.892;2022-07-03T00:19:10;18.90;99.90
53282;DHT22;39167;52.794;6.892;2022-07-03T00:21:51;18.80;99.90
53282;DHT22;39167;52.794;6.892;2022-07-03T00:24:24;18.80;99.90
53282;DHT22;39167;52.794;6.892;2022-07-03T00:26:52;18.80;99.90
53282;DHT22;39167;52.794;6.892;2022-07-03T00:29:21;18.80;99.90
53282;DHT22;39167;52.794;6.892;2022-07-03T00:31:47;18.80;99.90
53282;DHT22;39167;52.794;6.892;2022-07-03T00:34:15;18.80;99.90
53282;DHT22;39167;52.794;6.892;2022-07-03T00:36:42;18.70;99.90
53282;DHT22;39167;52.794;6.892;2022-07-03T00:39:10;18.60;99.90
53282;DHT22;39167;52.794;6.892;2022-07-03T00:41:36;18.60;99.90
53282;DHT22;39167;52.794;6.892;2022-07-03T00:44:03;18.60;99.90
53282;DHT22;39167;52.794;6.892;2022-07-03T00:46:29;18.60;99.90
53282;DHT22;39167;52.794;6.892;2022-07-03T00:48:56;18.60;99.90
53282;DHT22;39167;52.794;6.892;2022-07-03T00:51:28;18.50;99.90
53282;DHT22;39167;52.794;6.892;2022-07-03T00:53:58;18.50;99.90
53282;DHT22;39167;52.794;6.892;2022-07-03T00:56:29;18.50;99.90
53282;DHT22;39167;52.794;6.892;2022-07-03T00:58:57;18.50;99.90
53282;DHT22;39167;52.794;6.892;2022-07-03T01:01:26;18.50;99.90
53282;DHT22;39167;52.794;6.892;2022-07-03T01:06:49;18.50;99.90
53282;DHT22;39167;52.794;6.892;2022-07-03T01:09:23;18.40;99.90
53282;DHT22;39167;52.794;6.892;2022-07-03T01:11:57;18.40;99.90
53282;DHT22;39167;52.794;6.892;2022-07-03T01:14:35;18.30;99.90
53282;DHT22;39167;52.794;6.892;2022-07-03T01:17:08;18.30;99.90
53282;DHT22;39167;52.794;6.892;2022-07-03T01:19:38;18.30;99.90
53282;DHT22;39167;52.794;6.892;2022-07-03T01:30:18;18.20;99.90
53282;DHT22;39167;52.794;6.892;2022-07-03T01:32:46;18.10;99.90
53282;DHT22;39167;52.794;6.892;2022-07-03T01:35:21;18.10;99.90
53282;DHT22;39167;52.794;6.892;2022-07-03T01:37:48;18.10;99.90
53282;DHT22;39167;52.794;6.892;2022-07-03T01:40:17;18.10;99.90
53282;DHT22;39167;52.794;6.892;2022-07-03T01:42:45;18.10;99.90
53282;DHT22;39167;52.794;6.892;2022-07-03T01:45:14;18.10;99.90
53282;DHT22;39167;52.794;6.892;2022-07-03T01:47:41;18.10;99.90
53282;DHT22;39167;52.794;6.892;2022-07-03T01:50:11;18.00;99.90
53282;DHT22;39167;52.794;6.892;2022-07-03T01:52:40;18.00;99.90
53282;DHT22;39167;52.794;6.892;2022-07-03T01:55:07;17.90;99.90
53282;DHT22;39167;52.794;6.892;2022-07-03T01:57:44;17.90;99.90
53282;DHT22;39167;52.794;6.892;2022-07-03T02:00:12;17.80;99.90
53282;DHT22;39167;52.794;6.892;2022-07-03T02:03:03;17.80;99.90
53282;DHT22;39167;52.794;6.892;2022-07-03T02:05:42;17.70;99.90
53282;DHT22;39167;52.794;6.892;2022-07-03T02:10:40;17.60;99.90
53282;DHT22;39167;52.794;6.892;2022-07-03T02:13:22;17.50;99.90
53282;DHT22;39167;52.794;6.892;2022-07-03T02:15:50;17.50;99.90
53282;DHT22;39167;52.794;6.892;2022-07-03T02:18:36;17.50;99.90
53282;DHT22;39167;52.794;6.892;2022-07-03T02:21:18;17.50;99.90
53282;DHT22;39167;52.794;6.892;2022-07-03T02:26:33;17.50;99.90
53282;DHT22;39167;52.794;6.892;2022-07-03T02:29:04;17.40;99.90
53282;DHT22;39167;52.794;6.892;2022-07-03T02:31:44;17.30;99.90
53282;DHT22;39167;52.794;6.892;2022-07-03T02:34:17;17.20;99.90
53282;DHT22;39167;52.794;6.892;2022-07-03T02:36:47;17.20;99.90
53282;DHT22;39167;52.794;6.892;2022-07-03T02:42:14;17.00;99.90
53282;DHT22;39167;52.794;6.892;2022-07-03T02:44:46;16.90;99.90
53282;DHT22;39167;52.794;6.892;2022-07-03T02:50:21;16.90;99.90
53282;DHT22;39167;52.794;6.892;2022-07-03T02:52:54;16.80;99.90
53282;DHT22;39167;52.794;6.892;2022-07-03T02:55:43;16.70;99.90
53282;DHT22;39167;52.794;6.892;2022-07-03T03:01:33;16.60;99.90
53282;DHT22;39167;52.794;6.892;2022-07-03T03:04:21;16.60;99.90
53282;DHT22;39167;52.794;6.892;2022-07-03T03:07:01;16.60;99.90
53282;DHT22;39167;52.794;6.892;2022-07-03T03:09:41;16.60;99.90
53282;DHT22;39167;52.794;6.892;2022-07-03T03:12:08;16.60;99.90
53282;DHT22;39167;52.794;6.892;2022-07-03T03:14:48;16.50;99.90
53282;DHT22;39167;52.794;6.892;2022-07-03T03:17:26;16.50;99.90
53282;DHT22;39167;52.794;6.892;2022-07-03T03:19:58;16.40;99.90
53282;DHT22;39167;52.794;6.892;2022-07-03T03:22:52;16.40;99.90
53282;DHT22;39167;52.794;6.892;2022-07-03T03:25:24;16.30;99.90
53282;DHT22;39167;52.794;6.892;2022-07-03T03:27:50;16.30;99.90
53282;DHT22;39167;52.794;6.892;2022-07-03T03:30:16;16.30;99.90
53282;DHT22;39167;52.794;6.892;2022-07-03T03:32:42;16.30;99.90
53282;DHT22;39167;52.794;6.892;2022-07-03T03:35:08;16.20;99.90
53282;DHT22;39167;52.794;6.892;2022-07-03T03:37:34;16.20;99.90
53282;DHT22;39167;52.794;6.892;2022-07-03T03:40:05;16.20;99.90
53282;DHT22;39167;52.794;6.892;2022-07-03T03:42:31;16.00;99.90
53282;DHT22;39167;52.794;6.892;2022-07-03T03:44:56;16.10;99.90
53282;DHT22;39167;52.794;6.892;2022-07-03T03:47:22;16.20;99.90
53282;DHT22;39167;52.794;6.892;2022-07-03T03:49:49;16.20;99.90
53282;DHT22;39167;52.794;6.892;2022-07-03T03:52:14;16.20;99.90
53282;DHT22;39167;52.794;6.892;2022-07-03T03:54:40;16.10;99.90
53282;DHT22;39167;52.794;6.892;2022-07-03T03:57:19;16.00;99.90
53282;DHT22;39167;52.794;6.892;2022-07-03T03:59:46;16.00;99.90
53282;DHT22;39167;52.794;6.892;2022-07-03T04:02:12;15.90;99.90
53282;DHT22;39167;52.794;6.892;2022-07-03T04:04:38;15.90;99.90
53282;DHT22;39167;52.794;6.892;2022-07-03T04:07:04;15.90;99.90
53282;DHT22;39167;52.794;6.892;2022-07-03T04:09:30;16.00;99.90
53282;DHT22;39167;52.794;6.892;2022-07-03T04:11:56;16.00;99.90
53282;DHT22;39167;52.794;6.892;2022-07-03T04:14:22;16.10;99.90
53282;DHT22;39167;52.794;6.892;2022-07-03T04:16:48;16.00;99.90
53282;DHT22;39167;52.794;6.892;2022-07-03T04:19:13;16.00;99.90
53282;DHT22;39167;52.794;6.892;2022-07-03T04:21:39;16.10;99.90
53282;DHT22;39167;52.794;6.892;2022-07-03T04:24:05;16.10;99.90
53282;DHT22;39167;52.794;6.892;2022-07-03T04:26:31;16.20;99.90
53282;DHT22;39167;52.794;6.892;2022-07-03T04:28:57;16.20;99.90
53282;DHT22;39167;52.794;6.892;2022-07-03T04:31:22;16.30;99.90
53282;DHT22;39167;52.794;6.892;2022-07-03T04:33:48;16.30;99.90
53282;DHT22;39167;52.794;6.892;2022-07-03T04:36:15;16.30;99.90
53282;DHT22;39167;52.794;6.892;2022-07-03T04:38:41;16.30;99.90
53282;DHT22;39167;52.794;6.892;2022-07-03T04:41:06;16.30;99.90
53282;DHT22;39167;52.794;6.892;2022-07-03T04:43:32;16.30;99.90
53282;DHT22;39167;52.794;6.892;2022-07-03T04:45:58;16.40;99.90
53282;DHT22;39167;52.794;6.892;2022-07-03T04:48:23;16.40;99.90
53282;DHT22;39167;52.794;6.892;2022-07-03T04:50:49;16.40;99.90
53282;DHT22;39167;52.794;6.892;2022-07-03T04:53:15;16.40;99.90
53282;DHT22;39167;52.794;6.892;2022-07-03T04:55:40;16.50;99.90
53282;DHT22;39167;52.794;6.892;2022-07-03T04:58:06;16.50;99.90
53282;DHT22;39167;52.794;6.892;2022-07-03T05:00:32;16.40;99.90
53282;DHT22;39167;52.794;6.892;2022-07-03T05:02:57;16.50;99.90
53282;DHT22;39167;52.794;6.892;2022-07-03T05:05:25;16.50;99.90
53282;DHT22;39167;52.794;6.892;2022-07-03T05:07:50;16.50;99.90
53282;DHT22;39167;52.794;6.892;2022-07-03T05:10:16;16.50;99.90
53282;DHT22;39167;52.794;6.892;2022-07-03T05:12:42;16.60;99.90
53282;DHT22;39167;52.794;6.892;2022-07-03T05:15:08;16.60;99.90
53282;DHT22;39167;52.794;6.892;2022-07-03T05:17:34;16.50;99.90
53282;DHT22;39167;52.794;6.892;2022-07-03T05:20:01;16.50;99.90
53282;DHT22;39167;52.794;6.892;2022-07-03T05:22:45;16.50;99.90
53282;DHT22;39167;52.794;6.892;2022-07-03T05:25:11;16.50;99.90
53282;DHT22;39167;52.794;6.892;2022-07-03T05:27:37;16.50;99.90
53282;DHT22;39167;52.794;6.892;2022-07-03T05:30:04;16.50;99.90
53282;DHT22;39167;52.794;6.892;2022-07-03T05:32:29;16.50;99.90
53282;DHT22;39167;52.794;6.892;2022-07-03T05:34:55;16.50;99.90
53282;DHT22;39167;52.794;6.892;2022-07-03T05:37:21;16.50;99.90
53282;DHT22;39167;52.794;6.892;2022-07-03T05:39:46;16.50;99.90
53282;DHT22;39167;52.794;6.892;2022-07-03T05:42:12;16.60;99.90
53282;DHT22;39167;52.794;6.892;2022-07-03T05:44:38;16.60;99.90
53282;DHT22;39167;52.794;6.892;2022-07-03T05:47:04;16.60;99.90
53282;DHT22;39167;52.794;6.892;2022-07-03T05:49:29;16.60;99.90
53282;DHT22;39167;52.794;6.892;2022-07-03T05:51:55;16.60;99.90
53282;DHT22;39167;52.794;6.892;2022-07-03T05:54:21;16.70;99.90
53282;DHT22;39167;52.794;6.892;2022-07-03T05:56:46;16.70;99.90
53282;DHT22;39167;52.794;6.892;2022-07-03T05:59:12;16.70;99.90
53282;DHT22;39167;52.794;6.892;2022-07-03T06:01:38;16.80;99.90
53282;DHT22;39167;52.794;6.892;2022-07-03T06:04:04;16.80;99.90
53282;DHT22;39167;52.794;6.892;2022-07-03T06:06:29;16.90;99.90
53282;DHT22;39167;52.794;6.892;2022-07-03T06:08:55;16.90;99.90
53282;DHT22;39167;52.794;6.892;2022-07-03T06:11:21;17.00;99.90
53282;DHT22;39167;52.794;6.892;2022-07-03T06:13:48;17.00;99.90
53282;DHT22;39167;52.794;6.892;2022-07-03T06:16:14;17.10;99.90
53282;DHT22;39167;52.794;6.892;2022-07-03T06:18:40;17.10;99.90
53282;DHT22;39167;52.794;6.892;2022-07-03T06:21:06;17.20;99.90
53282;DHT22;39167;52.794;6.892;2022-07-03T06:23:31;17.20;99.90
53282;DHT22;39167;52.794;6.892;2022-07-03T06:25:57;17.40;99.90
53282;DHT22;39167;52.794;6.892;2022-07-03T06:28:23;17.40;99.90
53282;DHT22;39167;52.794;6.892;2022-07-03T06:30:49;17.50;99.90
53282;DHT22;39167;52.794;6.892;2022-07-03T06:33:15;17.50;99.90
53282;DHT22;39167;52.794;6.892;2022-07-03T06:35:40;17.60;99.90
53282;DHT22;39167;52.794;6.892;2022-07-03T06:38:06;17.70;99.90
53282;DHT22;39167;52.794;6.892;2022-07-03T06:40:32;17.70;99.90
53282;DHT22;39167;52.794;6.892;2022-07-03T06:42:57;17.80;99.90
53282;DHT22;39167;52.794;6.892;2022-07-03T06:45:23;17.80;99.90
53282;DHT22;39167;52.794;6.892;2022-07-03T06:47:49;17.90;99.90
53282;DHT22;39167;52.794;6.892;2022-07-03T06:50:14;18.00;99.90
53282;DHT22;39167;52.794;6.892;2022-07-03T06:52:40;18.10;99.90
53282;DHT22;39167;52.794;6.892;2022-07-03T06:55:06;18.20;99.90
53282;DHT22;39167;52.794;6.892;2022-07-03T06:57:32;18.20;99.90
53282;DHT22;39167;52.794;6.892;2022-07-03T06:59:58;18.30;99.90
53282;DHT22;39167;52.794;6.892;2022-07-03T07:02:24;18.40;99.90
53282;DHT22;39167;52.794;6.892;2022-07-03T07:04:49;18.50;99.90
53282;DHT22;39167;52.794;6.892;2022-07-03T07:07:15;18.50;99.90
53282;DHT22;39167;52.794;6.892;2022-07-03T07:09:41;18.60;99.90
53282;DHT22;39167;52.794;6.892;2022-07-03T07:12:07;18.70;99.90
53282;DHT22;39167;52.794;6.892;2022-07-03T07:14:32;18.80;99.90
53282;DHT22;39167;52.794;6.892;2022-07-03T07:16:58;18.90;99.90
53282;DHT22;39167;52.794;6.892;2022-07-03T07:19:24;18.90;99.90
53282;DHT22;39167;52.794;6.892;2022-07-03T07:21:49;19.00;99.90
53282;DHT22;39167;52.794;6.892;2022-07-03T07:24:15;19.10;99.90
53282;DHT22;39167;52.794;6.892;2022-07-03T07:26:41;19.20;99.90
53282;DHT22;39167;52.794;6.892;2022-07-03T07:29:07;19.30;99.90
53282;DHT22;39167;52.794;6.892;2022-07-03T07:31:33;19.40;99.90
53282;DHT22;39167;52.794;6.892;2022-07-03T07:33:58;19.40;99.90
53282;DHT22;39167;52.794;6.892;2022-07-03T07:36:24;19.40;99.90
53282;DHT22;39167;52.794;6.892;2022-07-03T07:38:50;19.50;99.90
53282;DHT22;39167;52.794;6.892;2022-07-03T07:41:16;19.50;99.90
53282;DHT22;39167;52.794;6.892;2022-07-03T07:43:42;19.50;99.90
53282;DHT22;39167;52.794;6.892;2022-07-03T07:46:08;19.60;99.90
53282;DHT22;39167;52.794;6.892;2022-07-03T07:48:36;19.60;99.90
53282;DHT22;39167;52.794;6.892;2022-07-03T07:51:02;19.70;99.90
53282;DHT22;39167;52.794;6.892;2022-07-03T07:53:28;19.70;99.90
53282;DHT22;39167;52.794;6.892;2022-07-03T07:55:54;19.90;99.90
53282;DHT22;39167;52.794;6.892;2022-07-03T07:58:19;19.90;99.90
53282;DHT22;39167;52.794;6.892;2022-07-03T08:00:47;19.90;99.90
53282;DHT22;39167;52.794;6.892;2022-07-03T08:03:32;20.00;99.90
53282;DHT22;39167;52.794;6.892;2022-07-03T08:06:16;20.10;99.90
53282;DHT22;39167;52.794;6.892;2022-07-03T08:08:41;20.10;99.90
53282;DHT22;39167;52.794;6.892;2022-07-03T08:11:07;20.10;99.90
53282;DHT22;39167;52.794;6.892;2022-07-03T08:13:33;20.20;99.90
53282;DHT22;39167;52.794;6.892;2022-07-03T08:15:59;20.30;99.90
53282;DHT22;39167;52.794;6.892;2022-07-03T08:18:24;20.30;99.90
53282;DHT22;39167;52.794;6.892;2022-07-03T08:20:50;20.40;99.90
53282;DHT22;39167;52.794;6.892;2022-07-03T08:23:16;20.50;99.90
53282;DHT22;39167;52.794;6.892;2022-07-03T08:25:42;20.60;99.90
53282;DHT22;39167;52.794;6.892;2022-07-03T08:28:08;20.70;99.90
53282;DHT22;39167;52.794;6.892;2022-07-03T08:30:34;20.80;99.90
53282;DHT22;39167;52.794;6.892;2022-07-03T08:33:00;20.90;99.90
53282;DHT22;39167;52.794;6.892;2022-07-03T08:35:26;20.90;99.90
53282;DHT22;39167;52.794;6.892;2022-07-03T08:37:53;21.00;99.90
53282;DHT22;39167;52.794;6.892;2022-07-03T08:40:20;21.10;99.90
53282;DHT22;39167;52.794;6.892;2022-07-03T08:45:18;21.10;99.90
53282;DHT22;39167;52.794;6.892;2022-07-03T08:47:45;21.20;99.90
53282;DHT22;39167;52.794;6.892;2022-07-03T08:50:12;21.30;99.90
53282;DHT22;39167;52.794;6.892;2022-07-03T08:52:38;21.30;99.90
53282;DHT22;39167;52.794;6.892;2022-07-03T08:55:05;21.20;99.90
53282;DHT22;39167;52.794;6.892;2022-07-03T08:57:31;21.30;99.90
53282;DHT22;39167;52.794;6.892;2022-07-03T09:00:02;21.20;99.90
53282;DHT22;39167;52.794;6.892;2022-07-03T09:02:31;21.20;99.90
53282;DHT22;39167;52.794;6.892;2022-07-03T09:04:58;21.30;99.90
53282;DHT22;39167;52.794;6.892;2022-07-03T09:07:36;21.40;99.90
53282;DHT22;39167;52.794;6.892;2022-07-03T09:10:10;21.40;99.90
53282;DHT22;39167;52.794;6.892;2022-07-03T09:12:36;21.40;99.90
53282;DHT22;39167;52.794;6.892;2022-07-03T09:15:04;21.50;99.90
53282;DHT22;39167;52.794;6.892;2022-07-03T09:17:31;21.60;99.90
53282;DHT22;39167;52.794;6.892;2022-07-03T09:20:03;21.70;99.90
53282;DHT22;39167;52.794;6.892;2022-07-03T09:22:31;21.80;99.90
53282;DHT22;39167;52.794;6.892;2022-07-03T09:25:11;21.80;99.90
53282;DHT22;39167;52.794;6.892;2022-07-03T09:27:49;21.90;99.90
53282;DHT22;39167;52.794;6.892;2022-07-03T09:30:15;21.90;99.90
53282;DHT22;39167;52.794;6.892;2022-07-03T09:32:45;21.90;99.90
53282;DHT22;39167;52.794;6.892;2022-07-03T09:35:18;21.90;99.90
53282;DHT22;39167;52.794;6.892;2022-07-03T09:40:14;22.00;99.90
53282;DHT22;39167;52.794;6.892;2022-07-03T09:43:03;21.90;99.90
53282;DHT22;39167;52.794;6.892;2022-07-03T09:45:49;22.00;99.90
53282;DHT22;39167;52.794;6.892;2022-07-03T09:48:27;22.10;99.90
53282;DHT22;39167;52.794;6.892;2022-07-03T09:51:18;22.10;99.90
53282;DHT22;39167;52.794;6.892;2022-07-03T09:53:54;22.00;99.90
53282;DHT22;39167;52.794;6.892;2022-07-03T09:56:21;21.90;99.90
53282;DHT22;39167;52.794;6.892;2022-07-03T10:01:25;21.90;99.90
53282;DHT22;39167;52.794;6.892;2022-07-03T10:03:51;21.90;99.90
53282;DHT22;39167;52.794;6.892;2022-07-03T10:06:17;21.90;99.90
53282;DHT22;39167;52.794;6.892;2022-07-03T10:08:43;21.90;99.90
53282;DHT22;39167;52.794;6.892;2022-07-03T10:11:09;22.00;99.90
53282;DHT22;39167;52.794;6.892;2022-07-03T10:13:39;22.00;99.90
53282;DHT22;39167;52.794;6.892;2022-07-03T10:16:06;22.10;99.90
53282;DHT22;39167;52.794;6.892;2022-07-03T10:18:36;22.10;99.90
53282;DHT22;39167;52.794;6.892;2022-07-03T10:21:06;22.10;99.90
53282;DHT22;39167;52.794;6.892;2022-07-03T10:23:32;22.20;99.90
53282;DHT22;39167;52.794;6.892;2022-07-03T10:25:59;22.20;99.90
53282;DHT22;39167;52.794;6.892;2022-07-03T10:28:25;22.30;99.90
53282;DHT22;39167;52.794;6.892;2022-07-03T10:30:50;22.40;99.90
53282;DHT22;39167;52.794;6.892;2022-07-03T10:33:17;22.50;99.90
53282;DHT22;39167;52.794;6.892;2022-07-03T10:35:53;22.60;99.90
53282;DHT22;39167;52.794;6.892;2022-07-03T10:38:40;22.60;99.90
53282;DHT22;39167;52.794;6.892;2022-07-03T10:41:30;22.70;99.90
53282;DHT22;39167;52.794;6.892;2022-07-03T10:44:18;22.70;99.90
53282;DHT22;39167;52.794;6.892;2022-07-03T10:47:02;22.70;99.90
53282;DHT22;39167;52.794;6.892;2022-07-03T10:49:28;22.60;99.90
53282;DHT22;39167;52.794;6.892;2022-07-03T10:52:02;22.70;99.90
53282;DHT22;39167;52.794;6.892;2022-07-03T10:54:33;22.70;99.90
53282;DHT22;39167;52.794;6.892;2022-07-03T10:57:12;22.70;99.90
53282;DHT22;39167;52.794;6.892;2022-07-03T11:07:32;22.80;99.90
53282;DHT22;39167;52.794;6.892;2022-07-03T11:15:39;22.90;99.90
53282;DHT22;39167;52.794;6.892;2022-07-03T11:25:46;22.80;99.90
53282;DHT22;39167;52.794;6.892;2022-07-03T11:33:58;22.90;99.90
53282;DHT22;39167;52.794;6.892;2022-07-03T11:36:25;22.90;99.90
53282;DHT22;39167;52.794;6.892;2022-07-03T11:41:29;22.90;99.90
53282;DHT22;39167;52.794;6.892;2022-07-03T11:44:00;22.90;99.90
53282;DHT22;39167;52.794;6.892;2022-07-03T11:46:30;23.00;99.90
53282;DHT22;39167;52.794;6.892;2022-07-03T11:51:56;23.00;99.90
53282;DHT22;39167;52.794;6.892;2022-07-03T11:54:22;23.00;99.90
53282;DHT22;39167;52.794;6.892;2022-07-03T11:56:48;23.00;99.90
53282;DHT22;39167;52.794;6.892;2022-07-03T11:59:14;22.90;99.90
53282;DHT22;39167;52.794;6.892;2022-07-03T12:01:39;22.90;99.90
53282;DHT22;39167;52.794;6.892;2022-07-03T12:04:12;23.00;99.90
53282;DHT22;39167;52.794;6.892;2022-07-03T12:09:16;23.10;99.90
53282;DHT22;39167;52.794;6.892;2022-07-03T12:11:51;23.20;99.90
53282;DHT22;39167;52.794;6.892;2022-07-03T12:14:17;23.30;99.90
53282;DHT22;39167;52.794;6.892;2022-07-03T12:16:43;23.30;99.90
53282;DHT22;39167;52.794;6.892;2022-07-03T12:19:08;23.50;99.90
53282;DHT22;39167;52.794;6.892;2022-07-03T12:21:39;23.60;99.90
53282;DHT22;39167;52.794;6.892;2022-07-03T12:24:13;23.60;99.90
53282;DHT22;39167;52.794;6.892;2022-07-03T12:26:39;23.60;99.90
53282;DHT22;39167;52.794;6.892;2022-07-03T12:29:10;23.60;99.90
53282;DHT22;39167;52.794;6.892;2022-07-03T12:31:43;23.60;99.90
53282;DHT22;39167;52.794;6.892;2022-07-03T12:34:10;23.60;99.90
53282;DHT22;39167;52.794;6.892;2022-07-03T12:36:37;23.60;99.90
53282;DHT22;39167;52.794;6.892;2022-07-03T12:39:03;23.70;99.90
53282;DHT22;39167;52.794;6.892;2022-07-03T12:41:29;23.70;99.90
53282;DHT22;39167;52.794;6.892;2022-07-03T12:43:57;23.80;99.90
53282;DHT22;39167;52.794;6.892;2022-07-03T12:46:25;23.80;99.90
53282;DHT22;39167;52.794;6.892;2022-07-03T12:54:10;23.70;99.90
53282;DHT22;39167;52.794;6.892;2022-07-03T12:56:37;23.80;99.90
53282;DHT22;39167;52.794;6.892;2022-07-03T12:59:03;23.70;99.90
53282;DHT22;39167;52.794;6.892;2022-07-03T13:02:17;23.80;99.90
53282;DHT22;39167;52.794;6.892;2022-07-03T13:04:37;23.90;99.90
53282;DHT22;39167;52.794;6.892;2022-07-03T13:07:05;24.00;99.90
53282;DHT22;39167;52.794;6.892;2022-07-03T13:09:35;24.10;99.90
53282;DHT22;39167;52.794;6.892;2022-07-03T13:12:01;24.30;99.90
53282;DHT22;39167;52.794;6.892;2022-07-03T13:14:27;24.30;99.90
53282;DHT22;39167;52.794;6.892;2022-07-03T13:16:56;24.30;99.90
53282;DHT22;39167;52.794;6.892;2022-07-03T13:19:24;24.20;99.90
53282;DHT22;39167;52.794;6.892;2022-07-03T13:21:51;24.00;99.90
53282;DHT22;39167;52.794;6.892;2022-07-03T13:24:18;24.00;99.90
53282;DHT22;39167;52.794;6.892;2022-07-03T13:26:44;23.90;99.90
53282;DHT22;39167;52.794;6.892;2022-07-03T13:29:10;23.90;99.90
53282;DHT22;39167;52.794;6.892;2022-07-03T13:31:36;23.90;99.90
53282;DHT22;39167;52.794;6.892;2022-07-03T13:34:02;23.90;99.90
53282;DHT22;39167;52.794;6.892;2022-07-03T13:36:29;24.00;99.90
53282;DHT22;39167;52.794;6.892;2022-07-03T13:38:56;24.00;99.90
53282;DHT22;39167;52.794;6.892;2022-07-03T13:41:22;24.00;99.90
53282;DHT22;39167;52.794;6.892;2022-07-03T13:43:49;24.00;99.90
53282;DHT22;39167;52.794;6.892;2022-07-03T13:46:19;24.00;99.90
53282;DHT22;39167;52.794;6.892;2022-07-03T13:48:47;23.90;99.90
53282;DHT22;39167;52.794;6.892;2022-07-03T13:51:13;23.80;99.90
53282;DHT22;39167;52.794;6.892;2022-07-03T13:53:39;23.60;99.90
53282;DHT22;39167;52.794;6.892;2022-07-03T13:56:05;23.60;99.90
53282;DHT22;39167;52.794;6.892;2022-07-03T13:58:31;23.50;99.90
53282;DHT22;39167;52.794;6.892;2022-07-03T14:01:00;23.40;99.90
53282;DHT22;39167;52.794;6.892;2022-07-03T14:03:27;23.20;99.90
53282;DHT22;39167;52.794;6.892;2022-07-03T14:05:52;22.80;99.90
53282;DHT22;39167;52.794;6.892;2022-07-03T14:08:19;22.50;99.90
53282;DHT22;39167;52.794;6.892;2022-07-03T14:10:44;21.90;99.90
53282;DHT22;39167;52.794;6.892;2022-07-03T14:13:11;21.50;99.90
53282;DHT22;39167;52.794;6.892;2022-07-03T14:15:36;21.20;99.90
53282;DHT22;39167;52.794;6.892;2022-07-03T14:18:02;21.00;99.90
53282;DHT22;39167;52.794;6.892;2022-07-03T14:20:28;20.80;99.90
53282;DHT22;39167;52.794;6.892;2022-07-03T14:22:54;20.60;99.90
53282;DHT22;39167;52.794;6.892;2022-07-03T14:25:20;20.40;99.90
53282;DHT22;39167;52.794;6.892;2022-07-03T14:27:45;20.30;99.90
53282;DHT22;39167;52.794;6.892;2022-07-03T14:30:30;20.00;99.90
53282;DHT22;39167;52.794;6.892;2022-07-03T14:33:14;20.00;99.90
53282;DHT22;39167;52.794;6.892;2022-07-03T14:35:40;19.80;99.90
53282;DHT22;39167;52.794;6.892;2022-07-03T14:38:05;19.90;99.90
53282;DHT22;39167;52.794;6.892;2022-07-03T14:40:31;19.90;99.90
53282;DHT22;39167;52.794;6.892;2022-07-03T14:42:57;20.00;99.90
53282;DHT22;39167;52.794;6.892;2022-07-03T14:45:24;20.10;99.90
53282;DHT22;39167;52.794;6.892;2022-07-03T14:47:49;20.10;99.90
53282;DHT22;39167;52.794;6.892;2022-07-03T14:50:15;20.20;99.90
53282;DHT22;39167;52.794;6.892;2022-07-03T14:52:41;20.20;99.90
53282;DHT22;39167;52.794;6.892;2022-07-03T14:55:07;20.20;99.90
53282;DHT22;39167;52.794;6.892;2022-07-03T14:57:52;20.20;99.90
53282;DHT22;39167;52.794;6.892;2022-07-03T15:00:26;20.30;99.90
53282;DHT22;39167;52.794;6.892;2022-07-03T15:03:05;20.40;99.90
53282;DHT22;39167;52.794;6.892;2022-07-03T15:05:38;20.40;99.90
53282;DHT22;39167;52.794;6.892;2022-07-03T15:10:53;20.30;99.90
53282;DHT22;39167;52.794;6.892;2022-07-03T15:13:19;20.20;99.90
53282;DHT22;39167;52.794;6.892;2022-07-03T15:15:47;20.20;99.90
53282;DHT22;39167;52.794;6.892;2022-07-03T15:18:18;20.30;99.90
53282;DHT22;39167;52.794;6.892;2022-07-03T15:20:44;20.40;99.90
53282;DHT22;39167;52.794;6.892;2022-07-03T15:23:10;20.50;99.90
53282;DHT22;39167;52.794;6.892;2022-07-03T15:25:37;20.60;99.90
53282;DHT22;39167;52.794;6.892;2022-07-03T15:28:04;20.60;99.90
53282;DHT22;39167;52.794;6.892;2022-07-03T15:30:33;20.70;99.90
53282;DHT22;39167;52.794;6.892;2022-07-03T15:32:59;20.70;99.90
53282;DHT22;39167;52.794;6.892;2022-07-03T15:35:26;20.80;99.90
53282;DHT22;39167;52.794;6.892;2022-07-03T15:40:51;20.80;99.90
53282;DHT22;39167;52.794;6.892;2022-07-03T15:43:30;20.70;99.90
53282;DHT22;39167;52.794;6.892;2022-07-03T15:52:00;20.40;99.90
53282;DHT22;39167;52.794;6.892;2022-07-03T15:57:31;20.30;99.90
53282;DHT22;39167;52.794;6.892;2022-07-03T16:00:06;20.40;99.90
53282;DHT22;39167;52.794;6.892;2022-07-03T16:02:47;20.50;99.90
53282;DHT22;39167;52.794;6.892;2022-07-03T16:05:30;20.50;99.90
53282;DHT22;39167;52.794;6.892;2022-07-03T16:07:59;20.50;99.90
53282;DHT22;39167;52.794;6.892;2022-07-03T16:10:26;20.40;99.90
53282;DHT22;39167;52.794;6.892;2022-07-03T16:12:52;20.30;99.90
53282;DHT22;39167;52.794;6.892;2022-07-03T16:15:20;20.40;99.90
53282;DHT22;39167;52.794;6.892;2022-07-03T16:17:46;20.40;99.90
53282;DHT22;39167;52.794;6.892;2022-07-03T16:20:13;20.50;99.90
53282;DHT22;39167;52.794;6.892;2022-07-03T16:22:40;20.50;99.90
53282;DHT22;39167;52.794;6.892;2022-07-03T16:25:08;20.60;99.90
53282;DHT22;39167;52.794;6.892;2022-07-03T16:27:34;20.60;99.90
53282;DHT22;39167;52.794;6.892;2022-07-03T16:30:00;20.70;99.90
53282;DHT22;39167;52.794;6.892;2022-07-03T16:32:37;20.80;99.90
53282;DHT22;39167;52.794;6.892;2022-07-03T16:35:09;20.70;99.90
53282;DHT22;39167;52.794;6.892;2022-07-03T16:37:46;20.70;99.90
53282;DHT22;39167;52.794;6.892;2022-07-03T16:40:13;20.60;99.90
53282;DHT22;39167;52.794;6.892;2022-07-03T16:42:46;20.40;99.90
53282;DHT22;39167;52.794;6.892;2022-07-03T16:45:14;20.40;99.90
53282;DHT22;39167;52.794;6.892;2022-07-03T16:47:43;20.30;99.90
53282;DHT22;39167;52.794;6.892;2022-07-03T16:50:13;20.20;99.90
53282;DHT22;39167;52.794;6.892;2022-07-03T16:52:43;20.20;99.90
53282;DHT22;39167;52.794;6.892;2022-07-03T16:55:10;20.00;99.90
53282;DHT22;39167;52.794;6.892;2022-07-03T16:57:46;20.20;99.90
53282;DHT22;39167;52.794;6.892;2022-07-03T17:00:15;20.10;99.90
53282;DHT22;39167;52.794;6.892;2022-07-03T17:02:42;20.10;99.90
53282;DHT22;39167;52.794;6.892;2022-07-03T17:05:13;20.10;99.90
53282;DHT22;39167;52.794;6.892;2022-07-03T17:07:41;20.10;99.90
53282;DHT22;39167;52.794;6.892;2022-07-03T17:10:09;20.10;99.90